SashaShmel (mil_avia) wrote,
SashaShmel
mil_avia

Category:

Безумие и отвага "Уральцев"

Смотрю и удивляюсь , что за храбрые ребята ломятся в Калининград в такую погоду? Остальные благоразумно решили подождать. А эти напролом. За что и поплатились.

Набор эшелона 330 восвояси.

METAR UMKK 160830Z 21005MPS 180V240 2600 BR OVC002 M01/M01 Q1001 R24/29//60 NOSIG RMK QBB070 OBST OBSC QFE750/1000

Airbus A320 VP-BQW Ural Airlines | Flight U6371/SVR371 DME-KGD


- Рейс уже исчез из расписания . Вот так...


Млять! Чуть каша не сгорела из-за них :)) 
Tags: калининград, храброво
Subscribe

Recent Posts from This Journal

  • Cessna Grand Caravan, которую я видел в Храброво

    Теперь знаю, что это за самолёт. Хорошая погода помогла. Поехал в Храброво и сфоткал. . Авиакомпания "Скол", по всей вероятности ,…

  • Супостат не дремлет. В отличие от наших

    Весь вторник в непосредственной близости от Калининградской области летали разные самолёты НАТО и США . . Над Польшей работал Boeing E-8C JSTARS…

  • Special offer от Флайтрадара

    Сейчас я обхожусь без Голд-плана , как раньше, но вчера на глаза попалась их реклама о специальном предложении.. . Они предлагают GOLD за те же 35…

  • Post a new comment

    Error

    Anonymous comments are disabled in this journal

    default userpic

    Your reply will be screened

    Your IP address will be recorded 

  • 3 comments